Time;durP1;ratioP1;P1;durP2;ratioP2;P2;SDS_P1;SDS_P2;PMS_P1;PMS_P2;Temp;Humidity;BMP_temperature;BMP_pressure;BME280_temperature;BME280_humidity;BME280_pressure;Samples;Min_cycle;Max_cycle;Signal;HPM_P1;HPM_P2
2022/01/08 00:00:55;;;;;;;8.90;2.33;;;3.30;99.90;;;;;;5030920;28;20261;-58
2022/01/08 00:03:20;;;;;;;8.90;3.10;;;3.30;99.90;;;;;;5031377;28;20108;-58
2022/01/08 00:05:48;;;;;;;8.10;2.28;;;3.20;99.90;;;;;;5029654;28;20021;-58
2022/01/08 00:08:14;;;;;;;10.13;2.70;;;3.30;99.90;;;;;;5031366;28;20022;-58
2022/01/08 00:10:40;;;;;;;9.93;2.55;;;3.30;99.90;;;;;;5031768;28;20026;-58
2022/01/08 00:13:06;;;;;;;8.50;3.30;;;3.20;99.90;;;;;;5031553;28;20022;-58
2022/01/08 00:15:33;;;;;;;9.73;3.53;;;3.10;99.90;;;;;;5031394;28;20101;-58
2022/01/08 00:17:59;;;;;;;10.10;3.40;;;3.10;99.90;;;;;;5031008;28;20056;-59
2022/01/08 00:20:25;;;;;;;8.23;3.60;;;3.00;99.90;;;;;;5031459;28;20053;-58
2022/01/08 00:22:53;;;;;;;10.95;3.78;;;3.00;99.90;;;;;;5030895;28;20037;-58
2022/01/08 00:25:18;;;;;;;11.27;3.88;;;3.00;99.90;;;;;;5031341;28;20048;-58
2022/01/08 00:27:44;;;;;;;11.70;3.90;;;3.00;99.90;;;;;;5049469;28;20540;-58
2022/01/08 00:30:10;;;;;;;12.23;4.10;;;3.00;99.90;;;;;;5050325;28;20023;-58
2022/01/08 00:32:36;;;;;;;8.32;4.03;;;3.00;99.90;;;;;;5035143;28;20029;-58
2022/01/08 00:35:02;;;;;;;10.85;4.90;;;3.00;99.90;;;;;;5035106;28;20056;-58
2022/01/08 00:37:28;;;;;;;15.68;4.53;;;2.90;99.90;;;;;;5034452;28;20390;-59
2022/01/08 00:39:53;;;;;;;13.25;5.25;;;2.90;99.90;;;;;;5034650;28;20025;-58
2022/01/08 00:42:19;;;;;;;8.60;4.10;;;2.90;99.90;;;;;;5034545;28;20564;-58
2022/01/08 00:44:44;;;;;;;9.23;4.30;;;2.80;99.90;;;;;;5034810;28;20037;-58
2022/01/08 00:47:11;;;;;;;14.13;4.90;;;2.80;99.90;;;;;;5034484;28;20108;-58
2022/01/08 00:49:37;;;;;;;16.95;5.30;;;2.70;99.90;;;;;;5034377;28;20057;-58
2022/01/08 00:52:04;;;;;;;12.18;5.78;;;2.60;99.90;;;;;;5034856;28;20014;-58
2022/01/08 00:54:29;;;;;;;12.80;6.35;;;2.50;99.90;;;;;;5034822;28;20070;-58
2022/01/08 00:56:57;;;;;;;13.20;6.97;;;2.60;99.90;;;;;;5034711;28;20390;-58
2022/01/08 00:59:23;;;;;;;13.52;7.15;;;2.50;99.90;;;;;;5050069;28;20025;-58
2022/01/08 01:01:48;;;;;;;11.43;6.57;;;2.50;99.90;;;;;;5034535;28;20033;-58
2022/01/08 01:04:14;;;;;;;13.88;7.22;;;2.50;99.90;;;;;;5034483;28;20087;-58
2022/01/08 01:06:39;;;;;;;14.38;7.10;;;2.40;99.90;;;;;;5032943;28;20028;-58
2022/01/08 01:09:05;;;;;;;17.52;7.50;;;2.50;99.90;;;;;;5034157;28;20026;-58
2022/01/08 01:11:31;;;;;;;17.20;7.30;;;2.40;99.90;;;;;;5034306;28;20022;-58
2022/01/08 01:13:56;;;;;;;16.42;7.13;;;2.40;99.90;;;;;;5033744;28;20298;-58
2022/01/08 01:16:22;;;;;;;15.63;6.95;;;2.50;99.90;;;;;;5033491;28;20049;-58
2022/01/08 01:18:48;;;;;;;12.45;6.60;;;2.40;99.90;;;;;;5033818;28;20064;-58
2022/01/08 01:21:13;;;;;;;14.05;6.47;;;2.40;99.90;;;;;;5033632;28;20025;-58
2022/01/08 01:23:42;;;;;;;16.10;6.38;;;2.50;99.90;;;;;;5034116;28;20022;-58
2022/01/08 01:26:13;;;;;;;15.45;6.93;;;2.50;99.90;;;;;;5048763;28;20056;-58
2022/01/08 01:28:46;;;;;;;13.13;6.68;;;2.40;99.90;;;;;;5048548;28;20030;-58
2022/01/08 01:47:28;;;;;;;15.87;7.13;;;2.50;99.90;;;;;;5033406;28;20033;-58
2022/01/08 01:49:53;;;;;;;15.43;6.22;;;2.50;99.90;;;;;;5048422;28;20035;-58
2022/01/08 01:52:19;;;;;;;14.32;6.68;;;2.50;99.90;;;;;;5032347;28;20033;-58
2022/01/08 01:54:44;;;;;;;14.10;6.00;;;2.50;99.90;;;;;;5033663;28;20025;-58
2022/01/08 01:57:17;;;;;;;11.32;5.45;;;2.50;99.90;;;;;;5033395;28;20022;-58
2022/01/08 01:59:43;;;;;;;16.10;6.15;;;2.60;99.90;;;;;;5032652;28;20113;-58
2022/01/08 02:02:09;;;;;;;13.93;5.72;;;2.60;99.90;;;;;;5031665;28;20021;-58
2022/01/08 02:04:35;;;;;;;18.20;5.72;;;2.60;99.90;;;;;;5032271;28;20014;-58
2022/01/08 02:07:01;;;;;;;7.72;4.28;;;2.50;99.90;;;;;;5033066;28;20033;-58
2022/01/08 02:09:27;;;;;;;12.70;3.90;;;2.50;99.90;;;;;;5032654;28;20033;-58
2022/01/08 02:12:16;;;;;;;10.65;3.78;;;2.60;99.90;;;;;;5031780;28;20101;-58
2022/01/08 02:14:45;;;;;;;7.40;3.83;;;2.60;99.90;;;;;;5032276;28;20017;-58
2022/01/08 02:17:10;;;;;;;9.15;4.32;;;2.60;99.90;;;;;;5047967;28;20112;-58
2022/01/08 02:19:38;;;;;;;14.20;4.53;;;2.60;99.90;;;;;;5032589;28;20443;-58
2022/01/08 02:22:05;;;;;;;13.85;5.07;;;2.70;99.90;;;;;;5032612;28;20021;-58
2022/01/08 02:24:32;;;;;;;9.43;4.95;;;2.60;99.90;;;;;;5032580;28;20052;-58
2022/01/08 02:26:58;;;;;;;16.08;5.25;;;2.60;99.90;;;;;;5032183;28;20076;-58
2022/01/08 02:29:25;;;;;;;13.55;5.60;;;2.70;99.90;;;;;;5032390;28;20053;-59
2022/01/08 02:32:00;;;;;;;14.30;5.43;;;2.70;99.90;;;;;;5032213;28;20077;-58
2022/01/08 02:34:27;;;;;;;17.17;6.00;;;2.70;99.90;;;;;;5032490;28;20021;-58
2022/01/08 02:36:56;;;;;;;13.15;5.93;;;2.70;99.90;;;;;;5032699;28;20025;-58
2022/01/08 02:39:23;;;;;;;10.07;5.50;;;2.70;99.90;;;;;;5032027;28;20103;-58
2022/01/08 02:41:53;;;;;;;13.32;5.90;;;2.70;99.90;;;;;;5031662;28;20026;-58
2022/01/08 02:44:19;;;;;;;17.58;6.80;;;2.70;99.90;;;;;;5032117;28;20021;-58
2022/01/08 02:46:45;;;;;;;15.40;6.30;;;2.60;99.90;;;;;;5031776;28;20438;-58
2022/01/08 02:49:10;;;;;;;12.10;6.38;;;2.60;99.90;;;;;;5031981;28;20026;-58
2022/01/08 02:51:36;;;;;;;19.55;7.95;;;2.70;99.90;;;;;;5032122;28;20029;-58
2022/01/08 02:54:08;;;;;;;16.20;6.57;;;2.60;99.90;;;;;;5031871;28;20017;-58
2022/01/08 02:56:38;;;;;;;16.40;6.75;;;2.50;99.90;;;;;;5031210;28;20017;-58
2022/01/08 02:59:04;;;;;;;17.20;6.78;;;2.50;99.90;;;;;;5031082;28;20498;-58
2022/01/08 03:01:30;;;;;;;16.45;7.55;;;2.40;99.90;;;;;;5031477;28;20087;-58
2022/01/08 03:03:57;;;;;;;17.00;7.20;;;2.40;99.90;;;;;;5031662;28;20034;-58
2022/01/08 03:06:23;;;;;;;13.98;7.70;;;2.40;99.90;;;;;;5031612;28;20278;-58
2022/01/08 03:08:48;;;;;;;20.80;7.25;;;2.40;99.90;;;;;;5031724;28;20117;-58
2022/01/08 03:11:14;;;;;;;20.83;7.65;;;2.40;99.90;;;;;;5031601;28;20022;-58
2022/01/08 03:13:40;;;;;;;12.85;6.25;;;2.40;99.90;;;;;;5046816;28;20072;-58
2022/01/08 03:16:05;;;;;;;13.32;6.57;;;2.30;99.90;;;;;;5031284;28;20555;-58
2022/01/08 03:18:34;;;;;;;16.38;6.85;;;2.30;99.90;;;;;;5031590;28;20029;-58
2022/01/08 03:21:12;;;;;;;16.63;6.65;;;2.30;99.90;;;;;;5030997;28;20100;-58
2022/01/08 03:23:44;;;;;;;15.85;6.30;;;2.30;99.90;;;;;;5031285;28;20125;-58
2022/01/08 03:26:10;;;;;;;22.13;6.78;;;2.30;99.90;;;;;;5031126;28;20415;-58
2022/01/08 03:28:36;;;;;;;18.00;7.20;;;2.30;99.90;;;;;;5030718;28;20025;-61
2022/01/08 03:31:02;;;;;;;12.57;6.57;;;2.20;99.90;;;;;;5030921;28;20429;-58
2022/01/08 03:33:29;;;;;;;15.98;7.03;;;2.20;99.90;;;;;;5031685;28;20069;-58
2022/01/08 03:35:54;;;;;;;12.15;6.22;;;2.20;99.90;;;;;;5030698;28;20144;-58
2022/01/08 03:38:21;;;;;;;14.82;6.63;;;2.10;99.90;;;;;;5030934;28;20120;-58
2022/01/08 03:40:46;;;;;;;13.85;7.15;;;2.10;99.90;;;;;;5031203;28;20288;-58
2022/01/08 03:43:12;;;;;;;17.92;8.32;;;2.00;99.90;;;;;;5031299;28;20021;-58
2022/01/08 03:45:38;;;;;;;17.98;8.70;;;2.00;99.90;;;;;;5030999;28;20061;-59
2022/01/08 03:48:19;;;;;;;14.90;7.90;;;1.90;99.90;;;;;;5031027;28;20025;-58
2022/01/08 03:50:45;;;;;;;19.42;9.43;;;1.80;99.90;;;;;;5031746;28;20386;-58
2022/01/08 03:53:12;;;;;;;22.10;9.00;;;1.80;99.90;;;;;;5031105;28;20072;-59
2022/01/08 03:55:37;;;;;;;19.75;9.18;;;1.80;99.90;;;;;;5031202;28;20026;-58
2022/01/08 03:58:03;;;;;;;19.27;10.45;;;1.80;99.90;;;;;;5030400;28;20391;-58
2022/01/08 04:00:29;;;;;;;18.90;10.32;;;1.80;99.90;;;;;;5032263;28;20051;-58
2022/01/08 04:02:55;;;;;;;20.83;10.00;;;1.80;99.90;;;;;;5035175;28;20021;-58
2022/01/08 04:05:21;;;;;;;19.33;9.60;;;1.80;99.90;;;;;;5035715;28;20053;-58
2022/01/08 04:07:46;;;;;;;17.15;11.35;;;1.80;99.90;;;;;;5035204;28;20029;-58
2022/01/08 04:10:12;;;;;;;23.58;11.20;;;1.70;99.90;;;;;;5034959;28;20029;-58
2022/01/08 04:12:51;;;;;;;24.42;10.95;;;1.70;99.90;;;;;;5034402;28;20028;-58
2022/01/08 04:17:53;;;;;;;32.42;13.48;;;1.80;99.90;;;;;;5034571;28;20026;-58
2022/01/08 04:20:20;;;;;;;27.60;13.73;;;1.90;99.90;;;;;;5034303;28;20105;-58
2022/01/08 04:22:48;;;;;;;26.85;14.07;;;1.90;99.90;;;;;;5034683;28;20140;-58
2022/01/08 04:25:16;;;;;;;27.90;14.75;;;2.00;99.90;;;;;;5034935;28;20021;-58
2022/01/08 04:27:41;;;;;;;31.17;15.65;;;2.00;99.90;;;;;;5034849;28;20045;-58
2022/01/08 04:30:07;;;;;;;34.22;15.40;;;2.10;99.90;;;;;;5034945;28;20048;-58
2022/01/08 04:32:33;;;;;;;28.45;15.45;;;2.20;99.90;;;;;;5034411;28;20072;-58
2022/01/08 04:34:59;;;;;;;26.50;14.93;;;2.20;99.90;;;;;;5034887;28;20026;-58
2022/01/08 04:37:25;;;;;;;27.55;15.57;;;2.20;99.90;;;;;;5049640;28;20037;-58
2022/01/08 04:39:50;;;;;;;31.00;15.57;;;2.30;99.90;;;;;;5033750;28;20497;-58
2022/01/08 04:42:16;;;;;;;24.95;14.75;;;2.30;99.90;;;;;;5032915;28;20033;-59
2022/01/08 04:44:42;;;;;;;24.42;14.43;;;2.40;99.90;;;;;;5034330;28;20033;-58
2022/01/08 04:47:07;;;;;;;30.55;15.60;;;2.40;99.90;;;;;;5033776;28;20106;-59
2022/01/08 04:49:33;;;;;;;28.20;14.38;;;2.50;99.90;;;;;;5048808;28;20452;-59
2022/01/08 04:51:59;;;;;;;32.03;15.77;;;2.60;99.90;;;;;;5033143;28;20021;-58
2022/01/08 04:54:24;;;;;;;26.65;14.70;;;2.60;99.90;;;;;;5033537;28;20096;-58
2022/01/08 04:56:51;;;;;;;27.80;14.85;;;2.70;99.90;;;;;;5033624;28;20018;-58
2022/01/08 04:59:17;;;;;;;32.10;15.25;;;2.70;99.90;;;;;;5034284;28;20056;-58
2022/01/08 05:01:44;;;;;;;25.85;13.38;;;2.70;99.90;;;;;;5034243;28;20051;-58
2022/01/08 05:04:10;;;;;;;28.95;14.18;;;2.70;99.90;;;;;;5034300;28;20022;-58
2022/01/08 05:06:35;;;;;;;28.58;14.00;;;2.70;99.90;;;;;;5048749;28;20029;-58
2022/01/08 05:09:02;;;;;;;28.23;13.88;;;2.80;99.90;;;;;;5033837;28;20029;-58
2022/01/08 05:11:28;;;;;;;24.67;13.15;;;2.80;99.90;;;;;;5032283;28;20105;-58
2022/01/08 05:13:54;;;;;;;26.40;13.95;;;2.80;99.90;;;;;;5033127;28;20017;-58
2022/01/08 05:16:21;;;;;;;30.00;15.57;;;2.70;99.90;;;;;;5048971;28;20021;-58
2022/01/08 05:18:49;;;;;;;28.92;13.95;;;2.70;99.90;;;;;;5033767;28;20088;-58
2022/01/08 05:23:41;;;;;;;30.38;15.60;;;2.50;99.90;;;;;;5033789;28;20129;-58
2022/01/08 05:26:06;;;;;;;26.65;16.02;;;2.50;99.90;;;;;;5033567;28;20037;-58
2022/01/08 05:28:32;;;;;;;28.05;16.60;;;2.40;99.90;;;;;;5048463;28;20032;-58
2022/01/08 05:30:58;;;;;;;33.38;16.98;;;2.40;99.90;;;;;;5033368;28;20028;-58
2022/01/08 05:33:23;;;;;;;31.40;16.10;;;2.30;99.90;;;;;;5049023;28;20029;-58
2022/01/08 05:35:49;;;;;;;28.63;16.92;;;2.30;99.90;;;;;;5033406;28;20305;-58
2022/01/08 05:38:14;;;;;;;31.45;17.42;;;2.30;99.90;;;;;;5033070;28;20034;-57
2022/01/08 05:40:40;;;;;;;32.65;17.17;;;2.20;99.90;;;;;;5032860;28;20026;-58
2022/01/08 05:43:06;;;;;;;33.28;18.27;;;2.20;99.90;;;;;;5033147;28;20036;-58
2022/01/08 05:45:31;;;;;;;37.00;19.33;;;2.20;99.90;;;;;;5048355;28;20033;-58
2022/01/08 05:47:57;;;;;;;32.10;17.25;;;2.10;99.90;;;;;;5033126;28;20048;-58
2022/01/08 05:50:23;;;;;;;33.33;17.65;;;2.10;99.90;;;;;;5033374;28;20087;-58
2022/01/08 05:52:48;;;;;;;35.95;19.27;;;2.00;99.90;;;;;;5032794;28;20372;-58
2022/01/08 05:55:15;;;;;;;33.03;16.92;;;2.00;99.90;;;;;;5032770;28;20033;-58
2022/01/08 05:57:41;;;;;;;32.97;17.92;;;2.00;99.90;;;;;;5032202;28;20104;-59
2022/01/08 06:00:07;;;;;;;34.58;18.63;;;2.00;99.90;;;;;;5032814;28;20458;-59
2022/01/08 06:02:33;;;;;;;36.03;16.92;;;1.90;99.90;;;;;;5048006;28;20022;-59
2022/01/08 06:04:59;;;;;;;40.95;17.30;;;1.90;99.90;;;;;;5048200;28;20156;-58
2022/01/08 06:07:24;;;;;;;32.10;16.92;;;1.90;99.90;;;;;;5032792;28;20022;-58
2022/01/08 06:09:50;;;;;;;29.52;15.10;;;2.00;99.90;;;;;;5032830;28;20018;-58
2022/01/08 06:12:16;;;;;;;37.50;16.95;;;2.00;99.90;;;;;;5032723;28;20034;-58
2022/01/08 06:14:42;;;;;;;31.38;16.33;;;2.00;99.90;;;;;;5033013;28;20021;-58
2022/01/08 06:17:08;;;;;;;34.78;16.48;;;2.00;99.90;;;;;;5032907;28;20500;-58
2022/01/08 06:19:34;;;;;;;36.90;17.42;;;2.00;99.90;;;;;;5032380;28;20069;-58
2022/01/08 06:22:00;;;;;;;35.47;18.08;;;2.00;99.90;;;;;;5032178;28;20040;-58
2022/01/08 06:24:26;;;;;;;32.15;15.40;;;2.00;99.90;;;;;;5032041;28;20028;-58
2022/01/08 06:26:52;;;;;;;29.77;15.98;;;2.00;99.90;;;;;;5046695;28;20053;-58
2022/01/08 06:29:17;;;;;;;30.77;15.13;;;2.00;99.90;;;;;;5031335;28;20032;-58
2022/01/08 06:31:43;;;;;;;32.38;15.43;;;2.00;99.90;;;;;;5031956;28;20052;-58
2022/01/08 06:34:09;;;;;;;29.35;13.30;;;2.10;99.90;;;;;;5032825;28;20075;-58
2022/01/08 06:36:34;;;;;;;28.50;14.30;;;2.10;99.90;;;;;;5032049;28;20029;-58
2022/01/08 06:39:00;;;;;;;31.25;15.82;;;2.10;99.90;;;;;;5032395;28;20033;-58
2022/01/08 06:41:25;;;;;;;29.73;15.98;;;2.00;99.90;;;;;;5031917;28;20026;-58
2022/01/08 06:43:51;;;;;;;29.70;15.10;;;2.00;99.90;;;;;;5032273;28;20032;-58
2022/01/08 06:46:17;;;;;;;36.05;15.63;;;2.10;99.90;;;;;;5048116;28;20494;-58
2022/01/08 06:48:42;;;;;;;31.00;15.13;;;2.10;99.90;;;;;;5032056;28;20056;-58
2022/01/08 06:51:09;;;;;;;29.42;14.90;;;2.10;99.90;;;;;;5031772;28;20471;-59
2022/01/08 06:53:35;;;;;;;30.60;14.45;;;2.10;99.90;;;;;;5032551;28;20033;-59
2022/01/08 06:56:00;;;;;;;25.85;13.38;;;2.10;99.90;;;;;;5031956;28;20386;-58
2022/01/08 06:58:27;;;;;;;42.10;21.05;;;2.10;99.90;;;;;;5031689;28;20071;-58
2022/01/08 07:00:52;;;;;;;34.88;15.70;;;2.10;99.90;;;;;;5031344;28;20017;-58
2022/01/08 07:03:18;;;;;;;47.47;22.58;;;2.10;99.90;;;;;;5032576;28;20026;-58
2022/01/08 07:05:44;;;;;;;34.78;16.02;;;2.10;99.90;;;;;;5031577;28;20087;-58
2022/01/08 07:08:10;;;;;;;25.30;11.73;;;2.10;99.90;;;;;;5030431;28;20029;-58
2022/01/08 07:10:37;;;;;;;26.95;14.82;;;2.10;99.90;;;;;;5031600;28;20037;-58
2022/01/08 07:13:03;;;;;;;31.60;13.77;;;2.10;99.90;;;;;;5031127;28;20037;-58
2022/01/08 07:15:28;;;;;;;28.13;13.35;;;2.10;99.90;;;;;;5030156;28;20029;-58
2022/01/08 07:17:54;;;;;;;26.05;11.95;;;2.10;99.90;;;;;;5031703;28;20077;-58
2022/01/08 07:20:20;;;;;;;29.08;12.68;;;2.10;99.90;;;;;;5031514;28;20029;-58
2022/01/08 07:22:45;;;;;;;32.00;13.63;;;2.10;99.90;;;;;;5047036;28;20036;-58
2022/01/08 07:25:11;;;;;;;24.73;12.40;;;2.10;99.90;;;;;;5031312;28;20029;-58
2022/01/08 07:27:38;;;;;;;26.23;13.00;;;2.10;99.90;;;;;;5031059;28;20058;-58
2022/01/08 07:30:06;;;;;;;28.55;13.45;;;2.10;99.90;;;;;;5046584;28;20101;-58
2022/01/08 07:32:31;;;;;;;24.92;12.52;;;2.10;99.90;;;;;;5031168;28;20529;-58
2022/01/08 07:34:57;;;;;;;22.98;12.00;;;2.10;99.90;;;;;;5030606;28;20028;-58
2022/01/08 07:37:23;;;;;;;27.95;13.07;;;2.10;99.90;;;;;;5030940;28;20249;-58
2022/01/08 07:39:49;;;;;;;23.23;12.60;;;2.10;99.90;;;;;;5031046;28;20025;-58
2022/01/08 07:42:15;;;;;;;24.08;10.82;;;2.00;99.90;;;;;;5031158;28;20421;-58
2022/01/08 07:44:40;;;;;;;24.58;10.82;;;2.10;99.90;;;;;;5030996;28;20035;-58
2022/01/08 07:47:07;;;;;;;26.73;11.43;;;2.20;99.90;;;;;;5030831;28;20025;-58
2022/01/08 07:49:33;;;;;;;22.25;9.77;;;2.20;99.90;;;;;;5031048;28;20109;-58
2022/01/08 07:51:58;;;;;;;22.65;10.23;;;2.20;99.90;;;;;;5031231;28;20026;-58
2022/01/08 07:54:24;;;;;;;22.40;9.88;;;2.20;99.90;;;;;;5031536;28;20017;-58
2022/01/08 07:56:50;;;;;;;18.55;8.43;;;2.20;99.90;;;;;;5030912;28;20021;-58
2022/01/08 07:59:16;;;;;;;14.57;8.23;;;2.30;99.90;;;;;;5030376;28;20030;-58
2022/01/08 08:01:41;;;;;;;17.55;8.23;;;2.30;99.90;;;;;;5029427;28;20063;-58
2022/01/08 08:04:07;;;;;;;16.23;7.93;;;2.30;99.90;;;;;;5030926;28;20041;-58
2022/01/08 08:06:36;;;;;;;17.52;8.88;;;2.30;99.90;;;;;;5030840;28;20728;-58
2022/01/08 08:09:02;;;;;;;21.35;10.00;;;2.30;99.90;;;;;;5030774;28;20533;-58
2022/01/08 08:11:28;;;;;;;18.08;9.63;;;2.30;99.90;;;;;;5031040;28;20029;-58
2022/01/08 08:13:54;;;;;;;17.15;9.52;;;2.30;99.90;;;;;;5030751;28;20056;-58
2022/01/08 08:16:20;;;;;;;13.23;6.53;;;2.30;99.90;;;;;;5030877;28;20082;-58
2022/01/08 08:18:46;;;;;;;25.67;11.25;;;2.40;99.90;;;;;;5029574;28;20707;-58
2022/01/08 08:21:12;;;;;;;21.73;10.38;;;2.40;99.90;;;;;;5030250;28;20120;-58
2022/01/08 08:23:38;;;;;;;18.48;8.48;;;2.40;99.90;;;;;;5031048;28;20112;-58
2022/01/08 08:26:03;;;;;;;21.05;9.90;;;2.40;99.90;;;;;;5030117;28;20459;-58
2022/01/08 08:28:30;;;;;;;22.08;9.73;;;2.50;99.90;;;;;;5030796;28;20025;-58
2022/01/08 08:30:56;;;;;;;19.42;10.38;;;2.40;99.90;;;;;;5030844;28;20022;-58
2022/01/08 08:33:21;;;;;;;18.88;10.25;;;2.50;99.90;;;;;;5031253;28;20482;-58
2022/01/08 08:35:47;;;;;;;15.05;7.88;;;2.50;99.90;;;;;;5030626;28;20033;-58
2022/01/08 08:38:13;;;;;;;15.73;8.20;;;2.60;99.90;;;;;;5030406;28;20061;-58
2022/01/08 08:40:39;;;;;;;17.88;7.20;;;2.60;99.90;;;;;;5030701;28;20029;-58
2022/01/08 08:43:05;;;;;;;14.88;7.43;;;2.70;99.90;;;;;;5029492;28;20033;-58
2022/01/08 08:45:31;;;;;;;12.57;6.47;;;2.70;99.90;;;;;;5030271;28;20033;-58
2022/01/08 08:47:57;;;;;;;13.88;7.22;;;2.80;99.90;;;;;;5033649;28;20464;-58
2022/01/08 08:50:26;;;;;;;15.40;6.75;;;2.80;99.90;;;;;;5033930;28;20470;-58
2022/01/08 08:52:53;;;;;;;13.80;5.65;;;2.90;99.90;;;;;;5033919;28;20633;-58
2022/01/08 08:55:19;;;;;;;9.38;4.97;;;2.90;99.90;;;;;;5049396;28;20032;-58
2022/01/08 08:57:46;;;;;;;13.40;5.57;;;2.90;99.90;;;;;;5033825;28;20030;-58
2022/01/08 09:00:12;;;;;;;13.57;6.93;;;2.90;99.90;;;;;;5034055;28;20025;-58
2022/01/08 09:02:38;;;;;;;14.43;5.15;;;2.90;99.90;;;;;;5033668;28;20093;-58
2022/01/08 09:05:05;;;;;;;14.00;6.13;;;2.90;99.90;;;;;;5034229;28;20021;-58
2022/01/08 09:07:32;;;;;;;7.40;3.97;;;2.90;99.90;;;;;;5033713;28;20025;-58
2022/01/08 09:09:57;;;;;;;12.38;5.13;;;2.90;99.90;;;;;;5049158;28;20493;-57
2022/01/08 09:12:23;;;;;;;9.65;5.00;;;2.90;99.90;;;;;;5034001;28;20403;-57
2022/01/08 09:14:48;;;;;;;10.90;4.25;;;2.90;99.90;;;;;;5034299;28;20096;-58
2022/01/08 09:17:15;;;;;;;13.68;4.80;;;3.00;99.90;;;;;;5049409;28;20029;-58
2022/01/08 09:19:42;;;;;;;6.80;3.80;;;3.00;99.90;;;;;;5033637;28;20032;-58
2022/01/08 09:22:07;;;;;;;11.35;4.18;;;3.00;99.90;;;;;;5034092;28;20525;-58
2022/01/08 09:24:36;;;;;;;8.48;3.53;;;3.10;99.90;;;;;;5033606;28;20029;-58
2022/01/08 09:27:02;;;;;;;11.23;3.97;;;3.10;99.90;;;;;;5032826;28;20053;-57
2022/01/08 09:29:28;;;;;;;10.38;4.43;;;3.10;99.90;;;;;;5033020;28;20086;-57
2022/01/08 09:31:54;;;;;;;8.40;4.40;;;3.10;99.90;;;;;;5032891;28;20104;-56
2022/01/08 09:34:19;;;;;;;12.93;4.55;;;3.20;99.90;;;;;;5033382;28;20100;-56
2022/01/08 09:36:46;;;;;;;10.43;4.97;;;3.20;99.90;;;;;;5048355;28;20045;-56
2022/01/08 09:39:12;;;;;;;8.30;3.45;;;3.20;99.90;;;;;;5033343;28;20475;-56
2022/01/08 09:41:37;;;;;;;9.73;5.15;;;3.20;99.90;;;;;;5033235;28;20041;-56
2022/01/08 09:44:03;;;;;;;9.80;5.60;;;3.30;99.90;;;;;;5033149;28;20079;-57
2022/01/08 09:46:29;;;;;;;10.65;5.43;;;3.20;99.90;;;;;;5032000;28;20033;-57
2022/01/08 09:48:55;;;;;;;11.30;5.70;;;3.20;99.90;;;;;;5033199;28;20025;-57
2022/01/08 09:51:20;;;;;;;11.73;5.00;;;3.20;99.90;;;;;;5033423;28;20025;-57
2022/01/08 09:53:46;;;;;;;10.25;6.00;;;3.20;99.90;;;;;;5033005;28;20123;-56
2022/01/08 09:56:13;;;;;;;12.90;7.03;;;3.20;99.90;;;;;;5033181;28;20021;-56
2022/01/08 09:58:39;;;;;;;11.10;6.93;;;3.20;99.90;;;;;;5032883;28;20063;-56
2022/01/08 10:01:31;;;;;;;8.82;5.18;;;3.20;99.90;;;;;;5033169;28;20479;-55
2022/01/08 10:04:00;;;;;;;;;;;3.20;99.90;;;;;;5033513;28;20031;-56
2022/01/08 10:06:31;;;;;;;13.77;7.57;;;3.10;99.90;;;;;;5032631;28;20000;-56
2022/01/08 10:08:57;;;;;;;14.52;7.15;;;3.10;99.90;;;;;;5032420;28;20100;-56
2022/01/08 10:11:24;;;;;;;15.05;8.55;;;3.10;99.90;;;;;;5032653;28;20021;-56
2022/01/08 10:14:02;;;;;;;18.15;8.70;;;3.10;99.90;;;;;;5048234;28;20026;-54
2022/01/08 10:19:19;;;;;;;14.82;7.60;;;3.10;99.90;;;;;;5032401;28;20091;-56
2022/01/08 10:21:45;;;;;;;11.77;5.05;;;3.10;99.90;;;;;;5032800;28;20281;-56
2022/01/08 10:24:11;;;;;;;10.82;6.15;;;3.20;99.90;;;;;;5032399;28;20029;-54
2022/01/08 10:26:39;;;;;;;17.25;5.03;;;3.20;99.90;;;;;;5031444;28;20388;-55
2022/01/08 10:29:06;;;;;;;19.55;7.10;;;3.20;99.90;;;;;;5032004;28;20022;-55
2022/01/08 10:31:38;;;;;;;12.60;7.95;;;3.20;99.90;;;;;;5032038;28;20022;-55
2022/01/08 10:34:17;;;;;;;13.50;7.10;;;3.20;99.90;;;;;;5032497;28;20022;-54
2022/01/08 10:36:57;;;;;;;12.85;7.97;;;3.20;99.90;;;;;;5031884;28;20028;-55
2022/01/08 10:39:25;;;;;;;16.08;8.25;;;3.20;99.90;;;;;;5032145;28;20035;-56
2022/01/08 10:41:53;;;;;;;10.70;6.85;;;3.20;99.90;;;;;;5031998;28;20033;-59
2022/01/08 10:44:21;;;;;;;15.10;8.13;;;3.20;99.90;;;;;;5031839;28;20030;-57
2022/01/08 10:47:01;;;;;;;10.23;6.72;;;3.20;99.90;;;;;;5031567;28;20056;-58
2022/01/08 10:49:45;;;;;;;13.55;8.20;;;3.30;99.90;;;;;;5031454;28;20025;-59
2022/01/08 10:52:13;;;;;;;15.48;7.95;;;3.30;99.90;;;;;;5032116;28;20021;-58
2022/01/08 10:54:44;;;;;;;13.00;7.28;;;3.40;99.90;;;;;;5031881;28;20009;-58
2022/01/08 10:57:14;;;;;;;5.88;4.13;;;3.40;99.90;;;;;;5031322;28;20029;-58
2022/01/08 10:59:41;;;;;;;12.52;8.07;;;3.40;99.90;;;;;;5031111;28;20101;-58
2022/01/08 11:02:09;;;;;;;10.25;6.80;;;3.40;99.90;;;;;;5031253;28;20025;-59
2022/01/08 11:04:39;;;;;;;11.40;7.45;;;3.50;99.90;;;;;;5031957;28;20029;-59
2022/01/08 11:07:26;;;;;;;14.82;8.07;;;3.50;99.90;;;;;;5046281;28;20029;-59
2022/01/08 11:09:54;;;;;;;16.85;9.68;;;3.50;99.90;;;;;;5046158;28;20049;-59
2022/01/08 11:12:30;;;;;;;17.63;11.68;;;3.50;99.90;;;;;;5031708;28;20444;-59
2022/01/08 11:15:02;;;;;;;21.52;11.35;;;3.50;99.90;;;;;;5031581;28;20410;-59
2022/01/08 11:17:28;;;;;;;17.60;7.05;;;3.50;99.90;;;;;;5031600;28;20025;-59
2022/01/08 11:19:57;;;;;;;20.63;10.88;;;3.50;99.90;;;;;;5031008;28;20029;-59
2022/01/08 11:22:26;;;;;;;21.52;12.93;;;3.50;99.90;;;;;;5031046;28;20030;-59
2022/01/08 11:25:11;;;;;;;18.25;10.00;;;3.50;99.90;;;;;;5031443;28;20025;-58
2022/01/08 11:27:48;;;;;;;19.30;12.23;;;3.50;99.90;;;;;;5030395;28;20041;-58
2022/01/08 11:30:20;;;;;;;19.60;11.10;;;3.50;99.90;;;;;;5030037;28;20056;-58
2022/01/08 11:32:51;;;;;;;19.20;12.05;;;3.50;99.90;;;;;;5030613;28;20025;-58
2022/01/08 11:35:19;;;;;;;17.55;11.90;;;3.50;99.90;;;;;;5031317;28;20533;-58
2022/01/08 11:37:49;;;;;;;22.88;12.90;;;3.50;99.90;;;;;;5030357;28;20357;-58
2022/01/08 11:40:19;;;;;;;20.13;12.40;;;3.50;99.90;;;;;;5030400;28;20522;-58
2022/01/08 11:42:46;;;;;;;21.33;11.90;;;3.50;99.90;;;;;;5030836;28;20029;-58
2022/01/08 11:45:28;;;;;;;23.55;12.60;;;3.50;99.90;;;;;;5031043;28;20033;-59
2022/01/08 11:47:57;;;;;;;18.67;11.35;;;3.60;99.90;;;;;;5030363;28;20037;-59
2022/01/08 11:50:26;;;;;;;17.65;11.80;;;3.60;99.90;;;;;;5045841;28;20029;-59
2022/01/08 11:53:11;;;;;;;17.80;11.75;;;3.70;99.90;;;;;;5031323;28;20044;-60
2022/01/08 11:55:37;;;;;;;18.05;8.57;;;3.70;99.90;;;;;;5030286;28;20029;-60
2022/01/08 11:58:18;;;;;;;19.30;10.82;;;3.70;99.90;;;;;;5045857;28;20376;-60
2022/01/08 12:00:51;;;;;;;16.10;11.05;;;3.80;99.90;;;;;;5046115;28;20151;-60
2022/01/08 12:03:40;;;;;;;14.43;9.35;;;3.80;99.90;;;;;;5029545;28;20033;-60
2022/01/08 12:06:18;;;;;;;11.98;8.18;;;3.90;99.90;;;;;;5045745;28;20063;-60
2022/01/08 12:09:23;;;;;;;10.98;6.95;;;3.90;99.90;;;;;;5030435;28;20029;-60
2022/01/08 12:11:58;;;;;;;11.55;8.63;;;3.90;99.90;;;;;;5029185;28;20045;-60
2022/01/08 12:14:29;;;;;;;12.75;7.78;;;3.90;99.90;;;;;;5030917;28;20060;-60
2022/01/08 12:16:57;;;;;;;11.45;7.95;;;4.00;99.90;;;;;;5046097;28;20052;-60
2022/01/08 12:19:34;;;;;;;16.77;8.10;;;4.00;99.90;;;;;;5030251;28;20057;-60
2022/01/08 12:22:20;;;;;;;13.65;6.95;;;4.00;99.90;;;;;;5032073;28;20351;-60
2022/01/08 12:24:51;;;;;;;11.35;8.40;;;4.00;99.90;;;;;;5034414;28;20029;-60
2022/01/08 12:27:41;;;;;;;10.73;7.38;;;4.10;99.90;;;;;;5034559;28;20037;-60
2022/01/08 12:30:15;;;;;;;10.60;5.72;;;4.10;99.90;;;;;;5034887;28;20399;-60
2022/01/08 12:32:46;;;;;;;10.40;7.07;;;4.10;99.90;;;;;;5049739;28;20022;-60
2022/01/08 12:37:56;;;;;;;9.30;7.20;;;4.20;99.90;;;;;;5034700;28;20029;-59
2022/01/08 12:40:38;;;;;;;14.60;9.05;;;4.30;99.90;;;;;;5034587;28;20030;-59
2022/01/08 12:43:29;;;;;;;8.13;6.10;;;4.30;99.90;;;;;;5034663;28;20025;-59
2022/01/08 12:46:14;;;;;;;12.43;7.55;;;4.30;99.90;;;;;;5034398;28;20026;-59
2022/01/08 12:49:12;;;;;;;11.90;8.27;;;4.40;99.90;;;;;;5034343;28;20526;-59
2022/01/08 12:51:49;;;;;;;10.68;7.72;;;4.40;99.90;;;;;;5033896;28;20026;-59
2022/01/08 12:54:20;;;;;;;10.23;7.47;;;4.50;99.90;;;;;;5033778;28;20030;-59
2022/01/08 12:56:51;;;;;;;13.10;7.97;;;4.50;99.90;;;;;;5034088;28;20527;-59
2022/01/08 12:59:18;;;;;;;10.15;7.30;;;4.60;99.90;;;;;;5034202;28;20368;-60
2022/01/08 13:01:50;;;;;;;9.85;6.95;;;4.70;99.90;;;;;;5034521;28;20539;-59
2022/01/08 13:04:20;;;;;;;8.57;5.60;;;4.70;99.90;;;;;;5034652;28;20025;-59
2022/01/08 13:06:46;;;;;;;14.65;7.00;;;4.80;99.90;;;;;;5034189;28;20082;-59
2022/01/08 13:09:12;;;;;;;9.45;6.70;;;4.90;99.90;;;;;;5033748;28;20114;-59
2022/01/08 13:11:41;;;;;;;8.82;5.35;;;4.90;99.90;;;;;;5033594;28;20128;-59
2022/01/08 13:14:14;;;;;;;12.30;6.57;;;5.00;99.90;;;;;;5033024;28;20017;-60
2022/01/08 13:16:48;;;;;;;13.30;6.57;;;5.10;99.90;;;;;;5033753;28;20479;-60